createdAt,value
2018-09-01T00:01:52.269Z,29.91
2018-09-01T00:04:28.434Z,29.92
2018-09-01T00:07:03.961Z,29.94
2018-09-01T00:09:39.628Z,29.94
2018-09-01T00:12:15.420Z,29.96
2018-09-01T00:14:51.436Z,29.97
2018-09-01T00:17:32.839Z,29.98
2018-09-01T00:20:08.950Z,29.99
2018-09-01T00:22:44.965Z,30.01
2018-09-01T00:25:20.593Z,30.01
2018-09-01T00:27:56.410Z,30.02
2018-09-01T00:30:31.935Z,30.02
2018-09-01T00:33:07.565Z,30.04
2018-09-01T00:35:43.433Z,30.04
2018-09-01T00:38:23.281Z,30.08
2018-09-01T00:40:58.846Z,30.08
2018-09-01T00:43:34.388Z,30.09
2018-09-01T00:46:10.284Z,30.09
2018-09-01T00:48:46.265Z,30.10
2018-09-01T00:51:22.281Z,30.11
2018-09-01T00:53:57.636Z,30.11
2018-09-01T00:56:33.393Z,30.12
2018-09-01T00:59:09.240Z,30.14
2018-09-01T01:01:44.821Z,30.14
2018-09-01T01:04:20.193Z,30.14
2018-09-01T01:06:55.887Z,30.15
2018-09-01T01:09:31.454Z,30.14
2018-09-01T01:12:07.006Z,30.15
2018-09-01T01:14:42.925Z,30.15
2018-09-01T01:17:18.529Z,30.15
2018-09-01T01:19:54.298Z,30.14
2018-09-01T01:22:30.066Z,30.14
2018-09-01T01:25:06.044Z,30.14
2018-09-01T01:27:41.505Z,30.14
2018-09-01T01:30:17.620Z,30.14
2018-09-01T01:32:53.320Z,30.16
2018-09-01T01:35:29.112Z,30.15
2018-09-01T01:38:04.888Z,30.15
2018-09-01T01:40:40.336Z,30.14
2018-09-01T01:43:15.989Z,30.15
2018-09-01T01:45:52.411Z,30.16
2018-09-01T01:48:28.317Z,30.17
2018-09-01T01:55:35.301Z,30.19
2018-09-01T01:58:11.161Z,30.19
2018-09-01T02:00:46.517Z,30.17
2018-09-01T02:03:22.833Z,30.18
2018-09-01T02:05:58.538Z,30.17
2018-09-01T02:08:34.453Z,30.16
2018-09-01T02:11:09.881Z,30.17
2018-09-01T02:13:45.652Z,30.17
2018-09-01T02:16:21.355Z,30.18
2018-09-01T02:18:56.838Z,30.18
2018-09-01T02:21:32.567Z,30.18
2018-09-01T02:24:08.661Z,30.19
2018-09-01T02:26:44.621Z,30.19
2018-09-01T02:29:20.035Z,30.19
2018-09-01T02:31:55.911Z,30.19
2018-09-01T02:34:31.609Z,30.19
2018-09-01T02:37:07.468Z,30.17
2018-09-01T02:40:48.839Z,30.14
2018-09-01T02:43:24.306Z,30.15
2018-09-01T02:45:59.881Z,30.16
2018-09-01T02:48:35.538Z,30.17
2018-09-01T02:52:55.599Z,30.17
2018-09-01T02:57:31.634Z,30.16
2018-09-01T03:00:10.687Z,30.13
2018-09-01T03:02:46.868Z,30.11
2018-09-01T03:05:22.506Z,30.09
2018-09-01T03:07:58.436Z,30.07
2018-09-01T03:10:34.308Z,30.03
2018-09-01T03:13:10.333Z,30.01
2018-09-01T03:15:46.113Z,30.00
2018-09-01T03:18:21.580Z,29.96
2018-09-01T03:20:57.430Z,29.94
2018-09-01T03:23:33.238Z,29.93
2018-09-01T03:26:08.860Z,29.91
2018-09-01T03:28:44.656Z,29.91
2018-09-01T03:31:20.298Z,29.89
2018-09-01T03:33:56.703Z,29.90
2018-09-01T03:36:32.498Z,29.89
2018-09-01T03:39:09.579Z,29.88
2018-09-01T03:41:45.350Z,29.87
2018-09-01T03:44:20.902Z,29.87
2018-09-01T03:46:56.669Z,29.86
2018-09-01T03:49:32.881Z,29.85
2018-09-01T03:52:08.598Z,29.85
2018-09-01T03:54:44.041Z,29.85
2018-09-01T03:57:19.853Z,29.84
2018-09-01T03:59:55.457Z,29.83
2018-09-01T04:02:31.089Z,29.83
2018-09-01T04:05:06.412Z,29.81
2018-09-01T04:07:42.693Z,29.80
2018-09-01T04:10:18.374Z,29.29
2018-09-01T04:12:53.701Z,29.24
2018-09-01T04:15:29.373Z,29.35
2018-09-01T04:18:04.897Z,29.44
2018-09-01T04:20:40.393Z,29.50
2018-09-01T04:23:15.705Z,29.57
2018-09-01T04:25:51.385Z,29.59
2018-09-01T04:28:27.297Z,29.64
2018-09-01T04:31:02.828Z,29.64
2018-09-01T04:33:38.698Z,29.66
2018-09-01T04:36:14.424Z,29.68
2018-09-01T04:38:50.122Z,29.70
2018-09-01T04:41:26.048Z,29.68
2018-09-01T04:44:01.634Z,29.74
2018-09-01T04:47:34.480Z,29.75
2018-09-01T04:50:10.400Z,29.73
2018-09-01T04:52:46.487Z,29.73
2018-09-01T04:55:22.473Z,29.74
2018-09-01T04:57:58.376Z,29.76
2018-09-01T05:00:34.357Z,29.78
2018-09-01T05:03:09.718Z,29.79
2018-09-01T05:05:45.306Z,29.81
2018-09-01T05:08:21.036Z,29.81
2018-09-01T05:10:56.930Z,29.83
2018-09-01T05:13:32.690Z,29.84
2018-09-01T05:16:08.618Z,29.83
2018-09-01T05:18:44.565Z,29.84
2018-09-01T05:21:20.651Z,29.84
2018-09-01T05:23:56.091Z,29.83
2018-09-01T05:26:32.057Z,29.82
2018-09-01T05:29:07.720Z,29.82
2018-09-01T05:31:43.381Z,29.80
2018-09-01T05:34:19.004Z,29.81
2018-09-01T05:36:54.718Z,29.80
2018-09-01T05:39:30.378Z,29.80
2018-09-01T05:42:06.128Z,29.80
2018-09-01T05:44:41.625Z,29.80
2018-09-01T05:47:17.110Z,29.79
2018-09-01T05:49:52.907Z,29.80
2018-09-01T05:52:28.486Z,29.80
2018-09-01T05:55:03.812Z,29.80
2018-09-01T05:57:39.533Z,29.79
2018-09-01T06:00:15.612Z,29.80
2018-09-01T06:02:53.393Z,29.79
2018-09-01T06:05:29.051Z,29.80
2018-09-01T06:08:04.865Z,29.79
2018-09-01T06:10:40.501Z,29.79
2018-09-01T06:13:16.401Z,29.80
2018-09-01T06:15:52.393Z,29.79
2018-09-01T06:18:27.745Z,29.79
2018-09-01T06:21:03.389Z,29.79
2018-09-01T06:23:38.867Z,29.79
2018-09-01T06:26:14.443Z,29.78
2018-09-01T06:28:53.950Z,29.77
2018-09-01T06:31:29.753Z,29.77
2018-09-01T06:34:05.927Z,29.79
2018-09-01T06:36:41.726Z,29.78
2018-09-01T06:39:17.560Z,29.78
2018-09-01T06:44:26.559Z,29.72
2018-09-01T06:47:02.994Z,29.75
2018-09-01T06:49:38.723Z,29.77
2018-09-01T06:53:10.949Z,29.75
2018-09-01T06:55:46.757Z,29.75
2018-09-01T06:58:22.519Z,29.76
2018-09-01T07:00:58.389Z,29.76
2018-09-01T07:03:33.936Z,29.77
2018-09-01T07:06:09.723Z,29.77
2018-09-01T07:08:47.011Z,29.77
2018-09-01T07:11:22.955Z,29.76
2018-09-01T07:13:58.560Z,29.76
2018-09-01T07:16:34.106Z,29.77
2018-09-01T07:19:09.514Z,29.77
2018-09-01T07:21:45.333Z,29.77
2018-09-01T07:24:20.965Z,29.78
2018-09-01T07:26:56.669Z,29.77
2018-09-01T07:29:32.517Z,29.78
2018-09-01T07:32:07.985Z,29.78
2018-09-01T07:34:43.611Z,29.78
2018-09-01T07:38:08.774Z,29.78
2018-09-01T07:40:44.569Z,29.79
2018-09-01T07:43:20.101Z,29.78
2018-09-01T07:45:55.958Z,29.78
2018-09-01T07:48:31.710Z,29.79
2018-09-01T07:51:07.450Z,29.78
2018-09-01T07:53:43.050Z,29.78
2018-09-01T07:56:18.633Z,29.77
2018-09-01T07:58:54.489Z,29.78
2018-09-01T08:01:29.989Z,29.77
2018-09-01T08:04:05.746Z,29.76
2018-09-01T08:06:41.175Z,29.76
2018-09-01T08:09:16.591Z,29.75
2018-09-01T08:11:52.445Z,29.75
2018-09-01T08:14:27.924Z,29.76
2018-09-01T08:17:03.667Z,29.74
2018-09-01T08:19:39.515Z,29.74
2018-09-01T08:22:15.792Z,29.74
2018-09-01T08:24:51.629Z,29.74
2018-09-01T08:27:27.561Z,29.74
2018-09-01T08:30:03.121Z,29.72
2018-09-01T08:32:38.701Z,29.73
2018-09-01T08:35:14.496Z,29.70
2018-09-01T08:37:50.193Z,29.71
2018-09-01T08:40:25.691Z,29.73
2018-09-01T08:43:01.482Z,29.71
2018-09-01T08:45:36.980Z,29.71
2018-09-01T08:48:12.797Z,29.71
2018-09-01T08:50:48.254Z,29.71
2018-09-01T08:53:23.985Z,29.70
2018-09-01T08:55:59.813Z,29.69
2018-09-01T08:58:35.592Z,29.69
2018-09-01T09:01:10.989Z,29.67
2018-09-01T09:03:46.977Z,29.68
2018-09-01T09:06:22.485Z,29.66
2018-09-01T09:08:58.424Z,29.68
2018-09-01T09:11:34.252Z,29.66
2018-09-01T09:14:09.980Z,29.65
2018-09-01T09:16:45.821Z,29.63
2018-09-01T09:19:21.154Z,29.60
2018-09-01T09:21:57.161Z,29.63
2018-09-01T09:24:32.732Z,29.62
2018-09-01T09:27:58.637Z,29.58
2018-09-01T09:30:34.180Z,29.60
2018-09-01T09:33:09.805Z,29.60
2018-09-01T09:35:45.437Z,29.60
2018-09-01T09:38:21.026Z,29.60
2018-09-01T09:43:05.017Z,29.58
2018-09-01T09:45:40.638Z,29.59
2018-09-01T09:48:16.236Z,29.59
2018-09-01T09:50:51.721Z,29.59
2018-09-01T09:53:27.566Z,29.58
2018-09-01T09:56:03.151Z,29.58
2018-09-01T09:58:39.148Z,29.57
2018-09-01T10:01:18.850Z,29.57
2018-09-01T10:03:54.561Z,29.57
2018-09-01T10:06:30.031Z,29.55
2018-09-01T10:09:05.806Z,29.56
2018-09-01T10:11:42.054Z,29.55
2018-09-01T10:14:17.525Z,29.54
2018-09-01T10:16:53.033Z,29.54
2018-09-01T10:19:28.578Z,29.52
2018-09-01T10:22:04.193Z,29.53
2018-09-01T10:24:39.831Z,29.52
2018-09-01T10:27:57.001Z,29.49
2018-09-01T10:30:32.800Z,29.50
2018-09-01T10:33:08.576Z,29.49
2018-09-01T10:38:06.821Z,29.47
2018-09-01T10:40:42.492Z,29.47
2018-09-01T10:43:18.832Z,29.46
2018-09-01T10:45:54.593Z,29.45
2018-09-01T10:48:30.014Z,29.44
2018-09-01T10:51:05.636Z,29.44
2018-09-01T10:53:41.206Z,29.44
2018-09-01T10:56:17.565Z,29.43
2018-09-01T10:58:53.466Z,29.42
2018-09-01T11:01:29.810Z,29.43
2018-09-01T11:04:05.638Z,29.42
2018-09-01T11:06:41.608Z,29.39
2018-09-01T11:09:17.469Z,29.39
2018-09-01T11:11:53.015Z,29.39
2018-09-01T11:14:28.637Z,29.37
2018-09-01T11:17:04.270Z,29.36
2018-09-01T11:19:40.071Z,29.36
2018-09-01T11:22:15.853Z,29.36
2018-09-01T11:24:51.414Z,29.34
2018-09-01T11:27:27.104Z,29.33
2018-09-01T11:30:03.182Z,29.33
2018-09-01T11:32:38.758Z,29.33
2018-09-01T11:35:14.405Z,29.34
2018-09-01T11:37:49.801Z,29.33
2018-09-01T11:40:25.129Z,29.32
2018-09-01T11:43:01.323Z,29.31
2018-09-01T11:45:37.209Z,29.33
2018-09-01T11:48:12.847Z,29.32
2018-09-01T11:50:48.522Z,29.31
2018-09-01T11:53:24.176Z,29.30
2018-09-01T11:56:00.069Z,29.30
2018-09-01T11:58:35.724Z,29.30
2018-09-01T12:01:11.215Z,29.29
2018-09-01T12:03:46.651Z,29.29
2018-09-01T12:06:22.486Z,29.27
2018-09-01T12:08:58.589Z,29.27
2018-09-01T12:11:34.624Z,29.27
2018-09-01T12:14:10.089Z,29.26
2018-09-01T12:16:45.845Z,29.26
2018-09-01T12:19:21.446Z,29.26
2018-09-01T12:21:57.209Z,29.25
2018-09-01T12:24:33.698Z,29.25
2018-09-01T12:27:09.197Z,29.24
2018-09-01T12:29:44.871Z,29.24
2018-09-01T12:32:20.305Z,29.24
2018-09-01T12:34:56.182Z,29.23
2018-09-01T12:37:32.038Z,29.22
2018-09-01T12:40:07.601Z,29.21
2018-09-01T12:42:43.050Z,29.21
2018-09-01T12:45:18.571Z,29.20
2018-09-01T12:47:54.880Z,29.19
2018-09-01T12:50:30.902Z,29.20
2018-09-01T12:53:07.127Z,29.20
2018-09-01T12:55:43.134Z,29.20
2018-09-01T12:58:18.896Z,29.19
2018-09-01T13:00:54.518Z,29.19
2018-09-01T13:03:30.065Z,29.18
2018-09-01T13:06:05.794Z,29.18
2018-09-01T13:08:41.727Z,29.17
2018-09-01T13:11:17.108Z,29.17
2018-09-01T13:13:52.630Z,29.17
2018-09-01T13:16:28.098Z,29.15
2018-09-01T13:19:03.733Z,29.16
2018-09-01T13:21:39.580Z,29.16
2018-09-01T13:24:15.479Z,29.16
2018-09-01T13:26:50.885Z,29.15
2018-09-01T13:29:26.795Z,29.14
2018-09-01T13:32:02.741Z,29.13
2018-09-01T13:34:38.882Z,29.13
2018-09-01T13:37:14.306Z,29.12
2018-09-01T13:39:49.790Z,29.11
2018-09-01T13:42:25.289Z,29.10
2018-09-01T13:45:00.894Z,29.10
2018-09-01T13:47:36.262Z,29.10
2018-09-01T13:50:12.893Z,29.09
2018-09-01T13:52:48.540Z,29.09
2018-09-01T13:55:24.077Z,29.09
2018-09-01T13:58:00.022Z,29.07
2018-09-01T14:00:35.739Z,29.08
2018-09-01T14:03:11.550Z,29.07
2018-09-01T14:05:47.795Z,29.06
2018-09-01T14:08:23.726Z,29.06
2018-09-01T14:10:59.129Z,29.06
2018-09-01T14:13:34.700Z,29.07
2018-09-01T14:16:10.540Z,29.08
2018-09-01T14:18:46.635Z,29.06
2018-09-01T14:21:22.094Z,29.06
2018-09-01T14:23:57.685Z,29.05
2018-09-01T14:26:33.568Z,29.05
2018-09-01T14:29:10.033Z,29.04
2018-09-01T14:31:45.658Z,29.04
2018-09-01T14:34:21.778Z,29.03
2018-09-01T14:36:57.753Z,29.02
2018-09-01T14:39:33.305Z,29.02
2018-09-01T14:42:09.248Z,29.01
2018-09-01T14:44:44.829Z,29.01
2018-09-01T14:47:20.775Z,28.99
2018-09-01T14:49:56.509Z,29.00
2018-09-01T14:52:32.115Z,28.99
2018-09-01T14:55:07.654Z,28.99
2018-09-01T14:57:43.198Z,28.99
2018-09-01T15:00:18.646Z,28.99
2018-09-01T15:02:54.814Z,28.98
2018-09-01T15:05:30.586Z,28.98
2018-09-01T15:08:06.165Z,28.98
2018-09-01T15:10:41.828Z,28.96
2018-09-01T15:13:17.164Z,28.97
2018-09-01T15:15:52.737Z,28.96
2018-09-01T15:18:28.578Z,28.95
2018-09-01T15:21:04.698Z,28.96
2018-09-01T15:23:40.289Z,28.95
2018-09-01T15:26:15.677Z,28.94
2018-09-01T15:28:51.758Z,28.95
2018-09-01T15:31:27.646Z,28.95
2018-09-01T15:34:03.193Z,28.96
2018-09-01T15:36:38.889Z,28.94
2018-09-01T15:39:14.890Z,28.92
2018-09-01T15:41:50.517Z,28.93
2018-09-01T15:44:26.112Z,28.93
2018-09-01T15:47:01.844Z,28.92
2018-09-01T15:49:37.640Z,28.93
2018-09-01T15:52:13.398Z,28.94
2018-09-01T15:54:49.219Z,28.92
2018-09-01T15:57:24.676Z,28.91
2018-09-01T16:00:00.149Z,28.92
2018-09-01T16:02:36.140Z,28.92
2018-09-01T16:05:11.800Z,28.93
2018-09-01T16:07:47.164Z,28.94
2018-09-01T16:10:22.685Z,28.94
2018-09-01T16:12:58.589Z,28.94
2018-09-01T16:15:34.561Z,28.95
2018-09-01T16:18:10.599Z,28.97
2018-09-01T16:20:45.949Z,28.98
2018-09-01T16:23:21.590Z,28.99
2018-09-01T16:25:57.155Z,28.95
2018-09-01T16:28:32.917Z,28.93
2018-09-01T16:31:09.133Z,28.92
2018-09-01T16:33:44.918Z,28.93
2018-09-01T16:36:20.517Z,28.90
2018-09-01T16:38:56.392Z,28.88
2018-09-01T16:41:31.929Z,28.87
2018-09-01T16:44:07.689Z,28.87
2018-09-01T16:46:43.429Z,28.87
2018-09-01T16:49:19.235Z,28.86
2018-09-01T16:51:55.737Z,28.84
2018-09-01T16:54:31.809Z,28.84
2018-09-01T16:57:07.733Z,28.82
2018-09-01T16:59:43.641Z,28.81
2018-09-01T17:02:19.014Z,28.81
2018-09-01T17:04:54.688Z,28.79
2018-09-01T17:07:30.180Z,28.79
2018-09-01T17:10:05.968Z,28.78
2018-09-01T17:12:41.641Z,28.77
2018-09-01T17:15:17.837Z,28.75
2018-09-01T17:17:54.297Z,28.74
2018-09-01T17:20:30.150Z,28.72
2018-09-01T17:23:05.887Z,28.71
2018-09-01T17:25:42.145Z,28.69
2018-09-01T17:28:17.764Z,28.68
2018-09-01T17:30:53.968Z,28.68
2018-09-01T17:33:29.973Z,28.69
2018-09-01T17:36:05.807Z,28.69
2018-09-01T17:38:41.986Z,28.68
2018-09-01T17:41:17.767Z,28.66
2018-09-01T17:43:53.630Z,28.66
2018-09-01T17:46:29.204Z,28.66
2018-09-01T17:49:04.768Z,28.64
2018-09-01T17:51:40.613Z,28.64
2018-09-01T17:54:16.161Z,28.63
2018-09-01T17:56:51.982Z,28.64
2018-09-01T17:59:27.749Z,28.61
2018-09-01T18:02:03.755Z,28.62
2018-09-01T18:04:39.649Z,28.60
2018-09-01T18:07:15.620Z,28.60
2018-09-01T18:09:51.330Z,28.57
2018-09-01T18:12:26.958Z,28.57
2018-09-01T18:15:02.964Z,28.60
2018-09-01T18:17:39.337Z,28.62
2018-09-01T18:20:15.169Z,28.62
2018-09-01T18:22:51.014Z,28.63
2018-09-01T18:25:26.895Z,28.64
2018-09-01T18:28:02.371Z,28.64
2018-09-01T18:30:38.147Z,28.66
2018-09-01T18:33:13.679Z,28.67
2018-09-01T18:35:49.426Z,28.68
2018-09-01T18:38:25.181Z,28.70
2018-09-01T18:41:00.669Z,28.73
2018-09-01T18:43:36.685Z,28.72
2018-09-01T18:46:12.161Z,28.72
2018-09-01T18:48:47.695Z,28.72
2018-09-01T18:51:23.174Z,28.74
2018-09-01T18:53:58.944Z,28.76
2018-09-01T18:56:34.701Z,28.76
2018-09-01T18:59:10.761Z,28.77
2018-09-01T19:01:46.762Z,28.77
2018-09-01T19:04:22.630Z,28.80
2018-09-01T19:06:58.014Z,28.81
2018-09-01T19:12:20.230Z,28.80
2018-09-01T19:14:55.773Z,28.81
2018-09-01T19:17:31.793Z,28.79
2018-09-01T19:20:07.484Z,28.80
2018-09-01T19:22:43.223Z,28.82
2018-09-01T19:25:18.803Z,28.83
2018-09-01T19:27:54.214Z,28.84
2018-09-01T19:30:29.844Z,28.85
2018-09-01T19:33:05.666Z,28.86
2018-09-01T19:35:42.434Z,28.87
2018-09-01T19:38:17.933Z,28.95
2018-09-01T19:40:53.361Z,28.98
2018-09-01T19:43:29.017Z,29.00
2018-09-01T19:46:04.707Z,29.05
2018-09-01T19:48:40.782Z,29.09
2018-09-01T19:51:16.747Z,29.11
2018-09-01T19:53:52.191Z,29.12
2018-09-01T19:56:27.823Z,29.14
2018-09-01T19:59:03.653Z,29.14
2018-09-01T20:01:39.334Z,29.16
2018-09-01T20:04:14.926Z,29.16
2018-09-01T20:06:51.883Z,29.19
2018-09-01T20:09:27.687Z,29.20
2018-09-01T20:12:03.594Z,29.22
2018-09-01T20:14:40.194Z,29.24
2018-09-01T20:17:16.210Z,29.29
2018-09-01T20:19:51.774Z,29.30
2018-09-01T20:22:28.022Z,29.29
2018-09-01T20:25:03.430Z,29.28
2018-09-01T20:27:38.926Z,29.29
2018-09-01T20:30:14.993Z,29.28
2018-09-01T20:32:50.912Z,29.27
2018-09-01T20:35:30.677Z,29.27
2018-09-01T20:38:06.521Z,29.26
2018-09-01T20:40:42.243Z,29.27
2018-09-01T20:43:18.267Z,29.30
2018-09-01T20:45:53.925Z,29.33
2018-09-01T20:48:29.825Z,29.33
2018-09-01T20:51:05.678Z,29.37
2018-09-01T20:53:41.208Z,29.37
2018-09-01T20:56:17.205Z,29.40
2018-09-01T20:58:53.026Z,29.40
2018-09-01T21:01:28.662Z,29.42
2018-09-01T21:04:04.488Z,29.44
2018-09-01T21:06:40.022Z,29.45
2018-09-01T21:09:15.797Z,29.46
2018-09-01T21:11:51.779Z,29.47
2018-09-01T21:14:27.597Z,29.48
2018-09-01T21:17:03.466Z,29.50
2018-09-01T21:19:39.265Z,29.52
2018-09-01T21:22:15.045Z,29.54
2018-09-01T21:24:51.024Z,29.54
2018-09-01T21:27:27.174Z,29.55
2018-09-01T21:30:03.053Z,29.57
2018-09-01T21:32:39.045Z,29.58
2018-09-01T21:35:15.089Z,29.58
2018-09-01T21:37:50.964Z,29.60
2018-09-01T21:40:26.974Z,29.59
2018-09-01T21:43:03.167Z,29.63
2018-09-01T21:45:39.802Z,29.69
2018-09-01T21:48:16.199Z,29.70
2018-09-01T21:50:52.143Z,29.70
2018-09-01T21:53:28.075Z,29.70
2018-09-01T21:56:05.046Z,29.69
2018-09-01T21:58:41.258Z,29.70
2018-09-01T22:01:21.657Z,29.74
2018-09-01T22:03:57.718Z,29.76
2018-09-01T22:06:34.080Z,29.78
2018-09-01T22:09:11.261Z,29.81
2018-09-01T22:11:47.281Z,29.83
2018-09-01T22:14:23.257Z,29.86
2018-09-01T22:16:59.411Z,29.86
2018-09-01T22:19:35.932Z,29.89
2018-09-01T22:22:12.097Z,29.90
2018-09-01T22:24:48.421Z,29.92
2018-09-01T22:27:24.744Z,29.94
2018-09-01T22:30:01.537Z,29.95
2018-09-01T22:32:37.915Z,29.96
2018-09-01T22:35:14.306Z,29.97
2018-09-01T22:37:50.451Z,30.00
2018-09-01T22:40:26.515Z,30.01
2018-09-01T22:43:03.077Z,30.03
2018-09-01T22:45:39.229Z,30.04
2018-09-01T22:48:15.358Z,30.05
2018-09-01T22:50:51.871Z,30.07
2018-09-01T22:53:28.210Z,30.08
2018-09-01T22:56:04.210Z,30.09
2018-09-01T22:58:40.498Z,30.10
2018-09-01T23:01:16.925Z,30.11
2018-09-01T23:03:53.433Z,30.09
2018-09-01T23:06:29.312Z,30.09
2018-09-01T23:09:05.931Z,30.07
2018-09-01T23:11:42.102Z,30.00
2018-09-01T23:14:18.101Z,29.99
2018-09-01T23:16:54.522Z,30.00
2018-09-01T23:19:30.529Z,30.02
2018-09-01T23:22:06.789Z,30.03
2018-09-01T23:24:43.106Z,30.04
2018-09-01T23:27:19.287Z,30.07
2018-09-01T23:29:55.106Z,30.08
2018-09-01T23:32:31.123Z,30.12
2018-09-01T23:35:07.078Z,30.11
2018-09-01T23:37:43.286Z,30.14
2018-09-01T23:40:19.406Z,30.14
2018-09-01T23:42:55.850Z,30.14
2018-09-01T23:45:32.073Z,30.13
2018-09-01T23:48:08.506Z,30.16
2018-09-01T23:50:45.023Z,30.17
2018-09-01T23:53:21.017Z,30.18
2018-09-01T23:55:57.012Z,30.19
2018-09-01T23:58:33.278Z,30.18
